createdAt,value
2023-04-29T00:00:54.820Z,49.85
2023-04-29T00:03:23.085Z,49.87
2023-04-29T00:05:51.941Z,49.84
2023-04-29T00:08:21.350Z,49.90
2023-04-29T00:10:50.042Z,49.92
2023-04-29T00:13:18.834Z,50.08
2023-04-29T00:15:47.016Z,50.13
2023-04-29T00:18:15.193Z,50.05
2023-04-29T00:20:43.769Z,49.88
2023-04-29T00:23:12.164Z,49.88
2023-04-29T00:25:40.131Z,50.16
2023-04-29T00:28:08.209Z,50.10
2023-04-29T00:30:36.698Z,50.00
2023-04-29T00:33:04.844Z,50.10
2023-04-29T00:35:32.955Z,50.10
2023-04-29T00:38:00.917Z,50.24
2023-04-29T00:40:29.161Z,50.17
2023-04-29T00:42:57.485Z,49.97
2023-04-29T00:45:25.770Z,50.09
2023-04-29T00:47:53.957Z,50.06
2023-04-29T00:50:22.679Z,50.27
2023-04-29T00:52:52.580Z,50.09
2023-04-29T00:55:21.039Z,50.27
2023-04-29T00:57:52.534Z,50.16
2023-04-29T01:00:20.870Z,50.17
2023-04-29T01:02:50.144Z,50.28
2023-04-29T01:05:18.486Z,50.17
2023-04-29T01:07:46.953Z,50.30
2023-04-29T01:10:17.068Z,50.33
2023-04-29T01:12:49.546Z,50.26
2023-04-29T01:15:22.969Z,50.09
2023-04-29T01:17:56.156Z,50.31
2023-04-29T01:20:24.747Z,50.29
2023-04-29T01:22:53.448Z,50.31
2023-04-29T01:25:21.912Z,50.34
2023-04-29T01:28:22.515Z,50.25
2023-04-29T01:31:01.574Z,50.23
2023-04-29T01:33:42.219Z,50.07
2023-04-29T01:36:22.875Z,50.38
2023-04-29T01:39:00.672Z,50.29
2023-04-29T01:41:36.320Z,50.29
2023-04-29T01:44:19.030Z,50.26
2023-04-29T01:46:50.635Z,50.25
2023-04-29T01:49:29.096Z,50.38
2023-04-29T01:51:57.480Z,50.32
2023-04-29T01:54:26.078Z,50.40
2023-04-29T01:56:55.275Z,50.27
2023-04-29T01:59:49.885Z,50.36
2023-04-29T02:02:37.047Z,50.37
2023-04-29T02:05:43.834Z,50.39
2023-04-29T02:08:11.904Z,50.35
2023-04-29T02:10:51.748Z,50.30
2023-04-29T02:13:39.701Z,50.48
2023-04-29T02:16:11.388Z,50.51
2023-04-29T02:18:43.299Z,50.46
2023-04-29T02:21:12.418Z,50.45
2023-04-29T02:23:41.102Z,50.45
2023-04-29T02:26:09.906Z,50.48
2023-04-29T02:28:37.970Z,50.43
2023-04-29T02:31:06.346Z,50.56
2023-04-29T02:33:34.513Z,50.56
2023-04-29T02:36:02.721Z,50.61
2023-04-29T02:38:31.299Z,50.48
2023-04-29T02:40:59.696Z,50.54
2023-04-29T02:43:31.170Z,50.55
2023-04-29T02:46:00.632Z,50.55
2023-04-29T02:48:29.134Z,50.57
2023-04-29T02:50:57.393Z,50.55
2023-04-29T02:53:25.496Z,50.56
2023-04-29T02:55:53.460Z,50.70
2023-04-29T02:58:21.741Z,50.65
2023-04-29T03:00:50.121Z,50.76
2023-04-29T03:03:18.391Z,50.61
2023-04-29T03:05:46.786Z,50.54
2023-04-29T03:08:15.480Z,50.67
2023-04-29T03:10:43.859Z,50.59
2023-04-29T03:13:12.144Z,50.65
2023-04-29T03:15:41.448Z,50.60
2023-04-29T03:18:09.930Z,50.67
2023-04-29T03:20:38.413Z,50.76
2023-04-29T03:23:06.384Z,50.70
2023-04-29T03:25:34.752Z,50.73
2023-04-29T03:28:03.454Z,50.65
2023-04-29T03:30:31.934Z,50.73
2023-04-29T03:33:00.850Z,50.66
2023-04-29T03:35:29.636Z,50.70
2023-04-29T03:38:16.137Z,50.78
2023-04-29T03:40:45.842Z,50.84
2023-04-29T03:43:14.333Z,50.79
2023-04-29T03:45:42.814Z,50.77
2023-04-29T03:48:12.654Z,50.92
2023-04-29T03:50:41.734Z,50.97
2023-04-29T03:53:10.416Z,51.05
2023-04-29T03:55:38.604Z,51.01
2023-04-29T03:58:07.183Z,51.00
2023-04-29T04:00:35.780Z,51.10
2023-04-29T04:03:05.844Z,51.22
2023-04-29T04:05:35.710Z,51.25
2023-04-29T04:08:09.719Z,51.28
2023-04-29T04:10:38.316Z,51.29
2023-04-29T04:13:14.563Z,51.22
2023-04-29T04:15:49.395Z,51.22
2023-04-29T04:18:17.932Z,51.22
2023-04-29T04:20:46.171Z,51.33
2023-04-29T04:23:14.766Z,51.13
2023-04-29T04:25:48.256Z,51.32
2023-04-29T04:28:54.809Z,51.38
2023-04-29T04:31:37.167Z,51.37
2023-04-29T04:34:05.302Z,51.36
2023-04-29T04:36:33.979Z,51.44
2023-04-29T04:39:02.175Z,51.49
2023-04-29T04:41:32.197Z,51.30
2023-04-29T04:44:00.667Z,51.52
2023-04-29T04:46:40.272Z,51.55
2023-04-29T04:49:17.387Z,51.58
2023-04-29T04:51:52.021Z,51.55
2023-04-29T04:54:20.190Z,51.67
2023-04-29T04:56:52.477Z,51.59
2023-04-29T04:59:21.530Z,51.63
2023-04-29T05:01:49.750Z,51.57
2023-04-29T05:04:17.972Z,51.55
2023-04-29T05:06:47.040Z,51.66
2023-04-29T05:09:16.530Z,51.63
2023-04-29T05:11:46.666Z,51.60
2023-04-29T05:14:18.317Z,51.81
2023-04-29T05:16:47.063Z,51.63
2023-04-29T05:19:16.008Z,51.65
2023-04-29T05:21:44.185Z,51.64
2023-04-29T05:24:12.772Z,51.71
2023-04-29T05:26:41.252Z,51.70
2023-04-29T05:29:09.331Z,51.79
2023-04-29T05:31:45.702Z,51.76
2023-04-29T05:34:13.780Z,51.76
2023-04-29T05:36:42.569Z,51.71
2023-04-29T05:39:10.620Z,51.76
2023-04-29T05:41:38.726Z,51.77
2023-04-29T05:44:23.497Z,51.83
2023-04-29T05:46:52.171Z,51.86
2023-04-29T05:49:20.466Z,51.86
2023-04-29T05:51:48.722Z,51.94
2023-04-29T05:54:16.986Z,51.89
2023-04-29T05:56:46.832Z,51.97
2023-04-29T05:59:15.221Z,51.95
2023-04-29T06:01:46.862Z,52.08
2023-04-29T06:04:15.689Z,51.92
2023-04-29T06:07:09.133Z,52.02
2023-04-29T06:10:00.751Z,52.28
2023-04-29T06:12:31.153Z,52.03
2023-04-29T06:15:00.179Z,52.31
2023-04-29T06:17:31.266Z,52.27
2023-04-29T06:19:59.688Z,52.35
2023-04-29T06:22:27.870Z,52.30
2023-04-29T06:24:57.071Z,52.30
2023-04-29T06:27:38.246Z,52.41
2023-04-29T06:30:06.943Z,52.75
2023-04-29T06:32:35.492Z,52.88
2023-04-29T06:35:04.122Z,52.95
2023-04-29T06:37:51.330Z,53.10
2023-04-29T06:40:39.768Z,53.11
2023-04-29T06:43:39.989Z,53.07
2023-04-29T06:46:29.294Z,53.13
2023-04-29T06:49:10.181Z,53.05
2023-04-29T06:51:38.283Z,52.80
2023-04-29T06:54:06.669Z,52.87
2023-04-29T06:56:34.957Z,53.17
2023-04-29T06:59:04.591Z,53.13
2023-04-29T07:01:32.676Z,53.25
2023-04-29T07:04:01.038Z,53.21
2023-04-29T07:06:29.629Z,53.24
2023-04-29T07:08:57.610Z,53.21
2023-04-29T07:11:27.416Z,53.10
2023-04-29T07:13:55.490Z,53.15
2023-04-29T07:16:26.596Z,53.09
2023-04-29T07:18:54.905Z,53.13
2023-04-29T07:21:23.003Z,53.02
2023-04-29T07:23:51.381Z,53.05
2023-04-29T07:26:19.747Z,53.10
2023-04-29T07:28:48.444Z,52.96
2023-04-29T07:31:16.900Z,52.98
2023-04-29T07:33:48.994Z,52.90
2023-04-29T07:36:17.744Z,52.96
2023-04-29T07:38:45.663Z,52.73
2023-04-29T07:41:16.387Z,52.83
2023-04-29T07:43:45.186Z,52.84
2023-04-29T07:46:13.286Z,52.83
2023-04-29T07:48:41.453Z,52.86
2023-04-29T07:51:15.554Z,52.83
2023-04-29T07:53:44.847Z,52.73
2023-04-29T07:56:12.935Z,52.74
2023-04-29T07:58:43.113Z,52.80
2023-04-29T08:01:12.485Z,52.75
2023-04-29T08:03:42.282Z,52.71
2023-04-29T08:06:11.945Z,52.68
2023-04-29T08:08:43.139Z,52.65
2023-04-29T08:11:22.471Z,52.57
2023-04-29T08:13:51.059Z,52.60
2023-04-29T08:16:19.245Z,52.62
2023-04-29T08:18:47.637Z,52.51
2023-04-29T08:21:16.625Z,52.49
2023-04-29T08:23:44.600Z,52.59
2023-04-29T08:26:15.653Z,52.64
2023-04-29T08:28:43.713Z,52.46
2023-04-29T08:31:18.608Z,52.50
2023-04-29T08:33:47.135Z,52.56
2023-04-29T08:36:15.498Z,52.47
2023-04-29T08:38:43.506Z,52.56
2023-04-29T08:41:11.971Z,52.46
2023-04-29T08:43:41.114Z,52.49
2023-04-29T08:46:10.047Z,52.46
2023-04-29T08:48:44.182Z,52.38
2023-04-29T08:51:15.338Z,52.38
2023-04-29T08:53:43.426Z,52.32
2023-04-29T08:56:23.361Z,52.28
2023-04-29T08:58:54.781Z,52.25
2023-04-29T09:01:23.287Z,52.23
2023-04-29T09:03:57.229Z,52.16
2023-04-29T09:06:25.287Z,52.19
2023-04-29T09:08:53.258Z,52.14
2023-04-29T09:11:21.448Z,52.20
2023-04-29T09:13:49.307Z,52.15
2023-04-29T09:16:17.292Z,52.15
2023-04-29T09:18:53.548Z,52.16
2023-04-29T09:21:32.476Z,52.14
2023-04-29T09:24:01.477Z,52.08
2023-04-29T09:26:55.647Z,52.08
2023-04-29T09:29:24.194Z,52.07
2023-04-29T09:31:57.806Z,51.98
2023-04-29T09:34:42.781Z,52.08
2023-04-29T09:37:30.206Z,52.02
2023-04-29T09:39:58.397Z,51.91
2023-04-29T09:42:26.468Z,51.97
2023-04-29T09:44:54.843Z,51.89
2023-04-29T09:47:34.161Z,51.89
2023-04-29T09:50:14.046Z,51.82
2023-04-29T09:52:42.621Z,51.64
2023-04-29T09:55:11.607Z,51.50
2023-04-29T09:57:44.274Z,51.42
2023-04-29T10:00:14.739Z,51.14
2023-04-29T10:02:43.618Z,50.94
2023-04-29T10:05:12.258Z,50.56
2023-04-29T10:07:41.513Z,50.44
2023-04-29T10:10:11.468Z,50.44
2023-04-29T10:12:40.329Z,50.57
2023-04-29T10:15:20.797Z,50.16
2023-04-29T10:18:07.549Z,50.00
2023-04-29T10:20:37.917Z,49.83
2023-04-29T10:23:06.502Z,49.58
2023-04-29T10:25:36.281Z,49.59
2023-04-29T10:28:05.630Z,49.52
2023-04-29T10:30:34.103Z,49.53
2023-04-29T10:33:03.681Z,49.51
2023-04-29T10:35:32.514Z,49.34
2023-04-29T10:38:04.064Z,49.36
2023-04-29T10:40:36.901Z,49.35
2023-04-29T10:43:05.438Z,49.23
2023-04-29T10:45:36.464Z,49.13
2023-04-29T10:48:10.859Z,49.14
2023-04-29T10:50:48.306Z,49.11
2023-04-29T10:53:17.284Z,49.13
2023-04-29T10:55:49.362Z,49.13
2023-04-29T10:58:36.361Z,49.14
2023-04-29T11:01:05.132Z,49.21
2023-04-29T11:03:45.586Z,49.09
2023-04-29T11:06:14.300Z,48.69
2023-04-29T11:08:43.495Z,48.46
2023-04-29T11:11:13.648Z,48.31
2023-04-29T11:13:46.023Z,48.08
2023-04-29T11:16:14.465Z,48.00
2023-04-29T11:19:01.432Z,47.90
2023-04-29T11:21:29.382Z,47.93
2023-04-29T11:23:57.970Z,48.07
2023-04-29T11:26:25.964Z,48.05
2023-04-29T11:28:54.227Z,47.97
2023-04-29T11:31:28.763Z,47.88
2023-04-29T11:33:56.921Z,47.74
2023-04-29T11:36:25.109Z,47.65
2023-04-29T11:38:53.293Z,47.60
2023-04-29T11:41:22.597Z,47.53
2023-04-29T11:43:57.912Z,47.57
2023-04-29T11:46:28.289Z,47.49
2023-04-29T11:48:57.670Z,47.34
2023-04-29T11:51:26.050Z,47.30
2023-04-29T11:53:54.224Z,47.30
2023-04-29T11:56:26.000Z,47.20
2023-04-29T11:58:55.884Z,47.12
2023-04-29T12:01:25.311Z,47.03
2023-04-29T12:03:58.576Z,47.00
2023-04-29T12:06:30.479Z,46.98
2023-04-29T12:08:59.277Z,46.83
2023-04-29T12:11:28.374Z,46.74
2023-04-29T12:13:57.059Z,46.64
2023-04-29T12:16:28.273Z,46.35
2023-04-29T12:18:58.787Z,46.29
2023-04-29T12:21:27.734Z,46.24
2023-04-29T12:23:58.782Z,46.08
2023-04-29T12:26:28.188Z,45.84
2023-04-29T12:28:57.900Z,45.81
2023-04-29T12:31:33.190Z,45.78
2023-04-29T12:34:03.606Z,45.61
2023-04-29T12:36:33.078Z,45.45
2023-04-29T12:39:01.456Z,45.25
2023-04-29T12:41:42.342Z,45.19
2023-04-29T12:44:11.174Z,45.03
2023-04-29T12:46:40.213Z,44.93
2023-04-29T12:49:08.500Z,44.87
2023-04-29T12:51:37.095Z,44.73
2023-04-29T12:54:07.448Z,44.69
2023-04-29T12:56:35.431Z,44.49
2023-04-29T12:59:10.328Z,44.52
2023-04-29T13:01:39.269Z,44.20
2023-04-29T13:04:09.320Z,44.49
2023-04-29T13:06:42.030Z,44.53
2023-04-29T13:09:17.945Z,44.41
2023-04-29T13:11:47.397Z,44.36
2023-04-29T13:14:15.703Z,44.36
2023-04-29T13:16:44.345Z,44.36
2023-04-29T13:19:24.678Z,44.39
2023-04-29T13:22:00.981Z,44.34
2023-04-29T13:24:28.959Z,44.35
2023-04-29T13:26:58.486Z,44.32
2023-04-29T13:29:26.963Z,44.30
2023-04-29T13:31:54.901Z,44.33
2023-04-29T13:34:23.323Z,44.30
2023-04-29T13:36:51.388Z,44.34
2023-04-29T13:39:22.937Z,44.36
2023-04-29T13:41:51.620Z,44.33
2023-04-29T13:44:29.442Z,44.35
2023-04-29T13:47:06.383Z,44.28
2023-04-29T13:50:10.047Z,44.20
2023-04-29T13:58:16.796Z,44.03
2023-04-29T14:00:38.310Z,43.96
2023-04-29T14:03:04.324Z,44.02
2023-04-29T14:05:32.577Z,44.03
2023-04-29T14:08:00.810Z,43.97
2023-04-29T14:10:29.308Z,43.91
2023-04-29T14:12:57.182Z,43.84
2023-04-29T14:15:25.572Z,43.74
2023-04-29T14:17:55.332Z,43.59
2023-04-29T14:20:23.359Z,43.56
2023-04-29T14:22:51.420Z,43.64
2023-04-29T14:25:19.501Z,43.66
2023-04-29T14:27:49.346Z,43.74
2023-04-29T14:30:17.421Z,43.56
2023-04-29T14:32:46.551Z,43.57
2023-04-29T14:35:15.393Z,43.52
2023-04-29T14:37:43.306Z,43.60
2023-04-29T14:40:11.648Z,43.42
2023-04-29T14:42:39.719Z,43.45
2023-04-29T14:45:08.211Z,43.51
2023-04-29T14:47:36.057Z,43.44
2023-04-29T14:50:05.027Z,43.38
2023-04-29T14:52:33.158Z,43.28
2023-04-29T14:55:01.120Z,43.31
2023-04-29T14:57:30.141Z,43.20
2023-04-29T14:59:58.204Z,43.26
2023-04-29T15:02:26.990Z,43.22
2023-04-29T15:04:55.489Z,43.19
2023-04-29T15:07:24.173Z,43.09
2023-04-29T15:09:52.147Z,43.10
2023-04-29T15:12:21.265Z,43.13
2023-04-29T15:14:49.423Z,43.16
2023-04-29T15:17:17.300Z,43.15
2023-04-29T15:19:45.325Z,43.08
2023-04-29T15:22:13.459Z,43.08
2023-04-29T15:24:41.631Z,43.08
2023-04-29T15:27:09.707Z,43.09
2023-04-29T15:29:38.761Z,43.09
2023-04-29T15:32:07.030Z,43.13
2023-04-29T15:34:35.166Z,43.07
2023-04-29T15:37:03.245Z,42.96
2023-04-29T15:39:31.125Z,43.16
2023-04-29T15:41:59.304Z,43.03
2023-04-29T15:44:27.163Z,42.99
2023-04-29T15:46:55.573Z,43.07
2023-04-29T15:49:24.740Z,43.06
2023-04-29T15:51:52.931Z,43.07
2023-04-29T15:54:21.628Z,43.14
2023-04-29T15:56:49.902Z,43.11
2023-04-29T15:59:17.897Z,43.10
2023-04-29T16:01:46.006Z,43.14
2023-04-29T16:04:14.297Z,43.13
2023-04-29T16:06:42.825Z,43.20
2023-04-29T16:09:12.186Z,43.04
2023-04-29T16:11:40.407Z,43.07
2023-04-29T16:14:08.538Z,43.08
2023-04-29T16:16:36.575Z,42.84
2023-04-29T16:19:04.947Z,42.82
2023-04-29T16:21:34.762Z,42.65
2023-04-29T16:24:02.842Z,42.77
2023-04-29T16:26:32.062Z,42.65
2023-04-29T16:29:00.019Z,42.46
2023-04-29T16:31:29.036Z,42.42
2023-04-29T16:33:57.603Z,42.39
2023-04-29T16:36:26.505Z,42.30
2023-04-29T16:38:58.095Z,42.32
2023-04-29T16:41:26.348Z,42.21
2023-04-29T16:43:54.416Z,42.00
2023-04-29T16:46:22.710Z,41.93
2023-04-29T16:48:52.210Z,42.13
2023-04-29T16:51:20.218Z,42.26
2023-04-29T16:53:48.159Z,42.47
2023-04-29T16:56:16.438Z,42.63
2023-04-29T16:58:44.420Z,42.86
2023-04-29T17:01:12.535Z,42.96
2023-04-29T17:03:41.279Z,43.13
2023-04-29T17:06:09.425Z,43.24
2023-04-29T17:08:37.647Z,43.36
2023-04-29T17:11:05.735Z,43.40
2023-04-29T17:13:33.686Z,43.46
2023-04-29T17:16:01.896Z,43.58
2023-04-29T17:18:29.940Z,43.78
2023-04-29T17:20:58.358Z,43.78
2023-04-29T17:23:26.279Z,43.85
2023-04-29T17:25:55.633Z,43.97
2023-04-29T17:28:23.687Z,44.07
2023-04-29T17:30:53.561Z,44.20
2023-04-29T17:33:22.392Z,44.47
2023-04-29T17:35:50.582Z,44.61
2023-04-29T17:38:18.467Z,44.74
2023-04-29T17:40:46.926Z,44.75
2023-04-29T17:43:15.213Z,44.85
2023-04-29T17:45:43.326Z,45.00
2023-04-29T17:48:12.189Z,45.02
2023-04-29T17:50:40.162Z,45.18
2023-04-29T17:53:08.230Z,45.30
2023-04-29T17:55:38.667Z,45.37
2023-04-29T17:58:07.230Z,45.42
2023-04-29T18:00:35.340Z,45.49
2023-04-29T18:03:03.840Z,45.62
2023-04-29T18:05:31.802Z,45.58
2023-04-29T18:07:59.968Z,45.70
2023-04-29T18:10:27.910Z,45.75
2023-04-29T18:12:56.231Z,45.78
2023-04-29T18:15:24.303Z,45.96
2023-04-29T18:17:54.504Z,45.96
2023-04-29T18:20:22.814Z,46.19
2023-04-29T18:22:50.890Z,46.10
2023-04-29T18:25:18.856Z,46.21
2023-04-29T18:27:46.930Z,46.29
2023-04-29T18:30:15.014Z,46.48
2023-04-29T18:32:43.225Z,46.52
2023-04-29T18:35:11.362Z,46.58
2023-04-29T18:37:39.652Z,46.67
2023-04-29T18:40:09.878Z,46.84
2023-04-29T18:42:38.047Z,46.88
2023-04-29T18:45:07.046Z,46.99
2023-04-29T18:47:34.969Z,47.17
2023-04-29T18:50:04.123Z,47.29
2023-04-29T18:52:32.306Z,47.35
2023-04-29T18:55:00.272Z,47.50
2023-04-29T18:57:28.253Z,47.60
2023-04-29T18:59:56.896Z,47.57
2023-04-29T19:02:25.342Z,47.53
2023-04-29T19:04:53.453Z,47.60
2023-04-29T19:07:21.789Z,47.76
2023-04-29T19:09:49.758Z,48.00
2023-04-29T19:12:17.939Z,47.93
2023-04-29T19:14:45.834Z,47.95
2023-04-29T19:17:14.199Z,48.16
2023-04-29T19:19:42.470Z,48.25
2023-04-29T19:22:10.776Z,48.35
2023-04-29T19:24:39.652Z,48.47
2023-04-29T19:27:08.143Z,48.55
2023-04-29T19:29:37.030Z,48.59
2023-04-29T19:32:04.915Z,48.80
2023-04-29T19:34:32.771Z,48.74
2023-04-29T19:37:01.373Z,48.66
2023-04-29T19:39:29.640Z,48.75
2023-04-29T19:41:58.333Z,48.98
2023-04-29T19:44:26.327Z,49.11
2023-04-29T19:46:54.321Z,49.26
2023-04-29T19:49:22.375Z,49.39
2023-04-29T19:51:51.870Z,49.66
2023-04-29T19:54:19.842Z,49.71
2023-04-29T19:56:47.840Z,49.68
2023-04-29T19:59:16.002Z,49.79
2023-04-29T20:01:44.402Z,49.78
2023-04-29T20:04:12.907Z,50.03
2023-04-29T20:06:41.471Z,49.92
2023-04-29T20:09:09.843Z,50.13
2023-04-29T20:11:38.380Z,50.18
2023-04-29T20:14:06.610Z,50.25
2023-04-29T20:16:35.750Z,50.33
2023-04-29T20:19:04.088Z,50.55
2023-04-29T20:21:32.877Z,50.59
2023-04-29T20:24:01.030Z,50.84
2023-04-29T20:26:29.028Z,50.76
2023-04-29T20:28:57.006Z,50.93
2023-04-29T20:31:25.027Z,51.14
2023-04-29T20:33:53.974Z,51.04
2023-04-29T20:36:23.494Z,51.18
2023-04-29T20:38:52.326Z,51.24
2023-04-29T20:41:20.974Z,51.53
2023-04-29T20:43:49.450Z,51.65
2023-04-29T20:46:18.001Z,51.64
2023-04-29T20:48:46.223Z,51.88
2023-04-29T20:51:14.304Z,51.91
2023-04-29T20:53:42.445Z,51.94
2023-04-29T20:56:11.271Z,52.06
2023-04-29T20:58:39.359Z,52.12
2023-04-29T21:01:07.869Z,52.22
2023-04-29T21:03:36.217Z,52.52
2023-04-29T21:06:04.326Z,52.50
2023-04-29T21:08:32.477Z,52.61
2023-04-29T21:11:00.760Z,52.54
2023-04-29T21:13:28.848Z,52.85
2023-04-29T21:15:56.945Z,52.84
2023-04-29T21:18:25.122Z,52.89
2023-04-29T21:20:53.576Z,52.77
2023-04-29T21:23:22.893Z,52.91
2023-04-29T21:25:50.857Z,52.90
2023-04-29T21:28:18.849Z,53.10
2023-04-29T21:30:46.907Z,52.97
2023-04-29T21:33:14.776Z,53.29
2023-04-29T21:35:43.360Z,53.45
2023-04-29T21:38:11.400Z,53.53
2023-04-29T21:40:40.887Z,53.67
2023-04-29T21:43:10.046Z,53.57
2023-04-29T21:45:38.653Z,53.55
2023-04-29T21:48:16.741Z,53.54
2023-04-29T21:50:45.137Z,53.70
2023-04-29T21:53:15.838Z,53.89
2023-04-29T21:55:44.663Z,53.80
2023-04-29T21:58:13.026Z,54.01
2023-04-29T22:00:48.072Z,53.99
2023-04-29T22:03:16.728Z,54.05
2023-04-29T22:05:44.700Z,54.10
2023-04-29T22:08:13.116Z,53.99
2023-04-29T22:10:41.828Z,54.20
2023-04-29T22:13:10.418Z,54.22
2023-04-29T22:15:38.885Z,54.40
2023-04-29T22:18:07.119Z,54.38
2023-04-29T22:20:35.241Z,54.56
2023-04-29T22:23:03.373Z,54.85
2023-04-29T22:25:31.402Z,54.86
2023-04-29T22:27:59.462Z,55.02
2023-04-29T22:30:27.438Z,54.92
2023-04-29T22:32:55.641Z,55.03
2023-04-29T22:35:24.109Z,55.11
2023-04-29T22:37:52.311Z,55.07
2023-04-29T22:40:20.467Z,55.13
2023-04-29T22:42:48.447Z,55.20
2023-04-29T22:45:17.538Z,55.10
2023-04-29T22:47:45.556Z,55.30
2023-04-29T22:50:14.108Z,55.34
2023-04-29T22:52:42.361Z,55.43
2023-04-29T22:55:10.762Z,55.64
2023-04-29T22:57:38.732Z,55.70
2023-04-29T23:00:07.530Z,55.64
2023-04-29T23:02:35.636Z,55.63
2023-04-29T23:05:04.374Z,55.84
2023-04-29T23:07:32.790Z,55.78
2023-04-29T23:10:00.857Z,56.08
2023-04-29T23:12:30.538Z,56.19
2023-04-29T23:14:58.568Z,56.30
2023-04-29T23:17:26.690Z,56.21
2023-04-29T23:19:55.336Z,56.34
2023-04-29T23:22:23.717Z,56.41
2023-04-29T23:24:51.977Z,56.31
2023-04-29T23:27:19.959Z,56.58
2023-04-29T23:29:48.236Z,56.43
2023-04-29T23:32:16.416Z,56.48
2023-04-29T23:34:44.583Z,56.56
2023-04-29T23:37:12.776Z,56.76
2023-04-29T23:39:40.942Z,56.72
2023-04-29T23:42:11.477Z,56.72
2023-04-29T23:44:40.079Z,56.60
2023-04-29T23:47:08.136Z,56.78
2023-04-29T23:49:36.316Z,56.90
2023-04-29T23:52:05.879Z,56.98
2023-04-29T23:54:34.315Z,56.92
2023-04-29T23:57:02.810Z,57.02
2023-04-29T23:59:30.982Z,57.11
